createdAt,value
2022-08-10T04:25:25.434Z,2.28
2022-08-10T04:28:28.738Z,2.40
2022-08-10T04:31:32.496Z,2.10
2022-08-10T04:34:35.675Z,2.15
2022-08-10T04:37:47.349Z,2.20
2022-08-10T04:40:50.280Z,2.50
2022-08-10T04:43:52.361Z,2.05
2022-08-10T04:46:57.763Z,2.00
2022-08-10T04:53:05.154Z,2.15
2022-08-10T04:56:08.684Z,2.10
2022-08-10T04:59:11.760Z,2.08
2022-08-10T05:02:29.254Z,2.28
2022-08-10T05:05:34.286Z,2.05
2022-08-10T05:08:36.409Z,2.10
2022-08-10T05:11:38.759Z,1.60
2022-08-10T05:14:41.030Z,2.53
2022-08-10T05:18:03.254Z,2.00
2022-08-10T05:21:06.129Z,1.80
2022-08-10T05:24:08.586Z,1.95
2022-08-10T05:27:10.811Z,2.05
2022-08-10T05:30:16.350Z,2.25
2022-08-10T05:33:18.611Z,1.90
2022-08-10T05:36:21.131Z,1.55
2022-08-10T05:39:28.780Z,1.70
2022-08-10T05:42:34.761Z,1.73
2022-08-10T05:46:19.144Z,1.85
2022-08-10T05:49:01.411Z,1.77
2022-08-10T05:52:04.402Z,1.60
2022-08-10T05:55:07.358Z,2.10
2022-08-10T05:58:09.848Z,1.62
2022-08-10T06:01:15.163Z,1.67
2022-08-10T06:04:31.289Z,1.90
2022-08-10T06:07:37.400Z,1.77
2022-08-10T06:11:11.262Z,1.58
2022-08-10T06:14:28.407Z,1.52
2022-08-10T06:17:32.306Z,1.83
2022-08-10T06:20:36.190Z,1.60
2022-08-10T06:23:39.941Z,1.80
2022-08-10T06:26:42.034Z,1.55
2022-08-10T06:29:45.976Z,1.48
2022-08-10T06:32:52.569Z,2.30
2022-08-10T06:35:56.790Z,1.67
2022-08-10T06:39:16.724Z,1.60
2022-08-10T06:42:37.801Z,1.87
2022-08-10T06:46:08.125Z,1.65
2022-08-10T06:49:12.761Z,1.73
2022-08-10T06:52:18.404Z,2.08
2022-08-10T06:55:39.929Z,1.48
2022-08-10T06:59:07.007Z,1.98
2022-08-10T07:02:25.541Z,1.50
2022-08-10T07:05:29.162Z,1.60
2022-08-10T07:08:36.245Z,1.83
2022-08-10T07:11:40.576Z,1.65
2022-08-10T07:14:46.158Z,1.60
2022-08-10T07:17:51.051Z,1.70
2022-08-10T07:20:55.140Z,1.62
2022-08-10T07:24:00.803Z,1.20
2022-08-10T07:27:06.397Z,1.55
2022-08-10T07:30:09.087Z,1.50
2022-08-10T07:33:16.114Z,1.40
2022-08-10T07:36:21.715Z,1.70
2022-08-10T07:40:01.938Z,1.75
2022-08-10T07:42:57.695Z,1.27
2022-08-10T07:46:05.264Z,1.30
2022-08-10T07:49:17.017Z,1.60
2022-08-10T07:52:23.034Z,1.55
2022-08-10T07:56:04.251Z,1.20
2022-08-10T07:58:59.447Z,1.45
2022-08-10T08:02:04.963Z,1.33
2022-08-10T08:05:09.915Z,1.30
2022-08-10T08:08:15.794Z,1.40
2022-08-10T08:11:25.502Z,1.40
2022-08-10T08:14:30.024Z,1.30
2022-08-10T08:17:35.462Z,1.62
2022-08-10T08:20:40.101Z,1.60
2022-08-10T08:24:05.948Z,1.25
2022-08-10T08:27:07.628Z,1.40
2022-08-10T08:30:11.109Z,1.37
2022-08-10T08:33:20.093Z,1.50
2022-08-10T08:36:41.035Z,1.42
2022-08-10T08:39:47.153Z,1.45
2022-08-10T08:43:01.904Z,1.45
2022-08-10T08:46:22.054Z,1.37
2022-08-10T08:50:09.020Z,1.35
2022-08-10T08:53:21.246Z,1.05
2022-08-10T08:56:54.072Z,1.55
2022-08-10T09:00:10.032Z,1.62
2022-08-10T09:03:37.449Z,1.23
2022-08-10T09:07:59.133Z,1.83
2022-08-10T09:11:00.960Z,1.10
2022-08-10T09:14:25.800Z,1.40
2022-08-10T09:17:47.263Z,1.25
2022-08-10T09:20:55.608Z,1.48
2022-08-10T09:24:05.429Z,1.30
2022-08-10T09:27:19.274Z,1.25
2022-08-10T09:30:35.734Z,1.23
2022-08-10T09:36:29.349Z,1.23
2022-08-10T09:38:17.220Z,1.50
2022-08-10T09:41:32.829Z,1.30
2022-08-10T09:45:03.335Z,1.20
2022-08-10T09:48:26.952Z,1.10
2022-08-10T09:51:47.009Z,1.35
2022-08-10T09:55:08.296Z,1.10
2022-08-10T09:59:27.296Z,1.40
2022-08-10T10:02:27.395Z,1.02
2022-08-10T10:05:50.249Z,0.93
2022-08-10T10:12:37.722Z,0.73
2022-08-10T10:16:13.344Z,1.10
2022-08-10T10:19:30.152Z,0.90
2022-08-10T10:22:53.038Z,2.58
2022-08-10T10:26:24.157Z,1.20
2022-08-10T10:29:58.018Z,1.50
2022-08-10T10:33:20.334Z,0.93
2022-08-10T10:36:24.475Z,0.95
2022-08-10T10:39:28.424Z,1.10
2022-08-10T10:42:52.555Z,1.05
2022-08-10T10:46:12.012Z,1.10
2022-08-10T10:49:52.129Z,0.93
2022-08-10T10:53:19.165Z,0.77
2022-08-10T10:56:54.401Z,1.10
2022-08-10T11:00:05.169Z,1.00
2022-08-10T11:03:26.649Z,0.90
2022-08-10T11:06:47.374Z,0.95
2022-08-10T11:10:04.545Z,1.17
2022-08-10T11:14:27.428Z,1.08
2022-08-10T11:17:27.056Z,1.00
2022-08-10T11:20:38.655Z,1.00
2022-08-10T11:24:48.700Z,1.25
2022-08-10T11:27:28.836Z,1.37
2022-08-10T11:30:44.548Z,1.12
2022-08-10T11:34:11.295Z,1.10
2022-08-10T11:38:32.000Z,1.00
2022-08-10T11:42:11.752Z,1.60
2022-08-10T11:45:05.839Z,1.05
2022-08-10T11:48:54.022Z,1.27
2022-08-10T11:51:53.010Z,1.20
2022-08-10T11:55:03.268Z,1.30
2022-08-10T11:58:29.823Z,1.33
2022-08-10T12:01:34.118Z,0.80
2022-08-10T12:04:40.326Z,1.62
2022-08-10T12:09:24.039Z,0.90
2022-08-10T12:11:12.284Z,1.20
2022-08-10T12:14:28.389Z,0.95
2022-08-10T12:17:39.803Z,1.02
2022-08-10T12:20:46.133Z,1.10
2022-08-10T12:24:03.018Z,0.82
2022-08-10T12:27:23.718Z,1.10
2022-08-10T12:30:40.908Z,1.05
2022-08-10T12:34:01.896Z,1.00
2022-08-10T12:37:43.839Z,0.82
2022-08-10T12:40:59.379Z,0.75
2022-08-10T12:44:22.298Z,0.93
2022-08-10T12:47:46.516Z,1.10
